createdAt,value
2022-10-08T00:00:19.733Z,99.99
2022-10-08T00:01:19.734Z,99.99
2022-10-08T00:02:19.836Z,99.99
2022-10-08T00:03:19.735Z,99.99
2022-10-08T00:04:19.826Z,99.99
2022-10-08T00:05:19.726Z,99.99
2022-10-08T00:06:19.726Z,99.99
2022-10-08T00:07:19.720Z,99.99
2022-10-08T00:08:19.725Z,99.99
2022-10-08T00:09:19.741Z,99.99
2022-10-08T00:10:19.721Z,99.99
2022-10-08T00:11:19.721Z,99.99
2022-10-08T00:12:19.720Z,99.99
2022-10-08T00:13:19.718Z,99.99
2022-10-08T00:14:19.717Z,99.99
2022-10-08T00:15:19.715Z,99.99
2022-10-08T00:16:19.780Z,99.99
2022-10-08T00:17:19.713Z,99.99
2022-10-08T00:18:19.713Z,99.99
2022-10-08T00:19:19.710Z,99.99
2022-10-08T00:20:19.709Z,99.99
2022-10-08T00:21:19.705Z,99.99
2022-10-08T00:22:19.706Z,99.99
2022-10-08T00:23:19.708Z,99.99
2022-10-08T00:24:19.705Z,99.99
2022-10-08T00:25:19.725Z,99.99
2022-10-08T00:26:19.707Z,99.99
2022-10-08T00:27:19.702Z,99.99
2022-10-08T00:28:19.750Z,99.99
2022-10-08T00:29:19.703Z,99.99
2022-10-08T00:30:19.697Z,99.99
2022-10-08T00:31:19.757Z,99.99
2022-10-08T00:32:19.702Z,99.99
2022-10-08T00:33:19.696Z,99.99
2022-10-08T00:34:19.693Z,99.99
2022-10-08T00:35:19.694Z,99.99
2022-10-08T00:36:19.695Z,99.99
2022-10-08T00:37:19.697Z,99.99
2022-10-08T00:38:19.688Z,99.99
2022-10-08T00:39:19.698Z,99.99
2022-10-08T00:40:19.685Z,99.99
2022-10-08T00:41:19.708Z,99.99
2022-10-08T00:42:19.694Z,99.99
2022-10-08T00:43:23.898Z,99.99
2022-10-08T00:44:19.684Z,99.99
2022-10-08T00:45:19.679Z,99.99
2022-10-08T00:46:19.679Z,99.99
2022-10-08T00:47:19.679Z,99.99
2022-10-08T00:48:19.676Z,99.99
2022-10-08T00:49:19.683Z,99.99
2022-10-08T00:50:19.677Z,99.99
2022-10-08T00:51:19.686Z,99.99
2022-10-08T00:52:19.684Z,99.99
2022-10-08T00:53:19.678Z,99.99
2022-10-08T00:54:19.681Z,99.99
2022-10-08T00:55:19.670Z,99.99
2022-10-08T00:56:19.669Z,99.99
2022-10-08T00:57:19.692Z,99.99
2022-10-08T00:58:19.672Z,99.99
2022-10-08T00:59:19.668Z,99.99
2022-10-08T01:00:19.713Z,99.99
2022-10-08T01:01:19.730Z,99.99
2022-10-08T01:02:19.788Z,99.99
2022-10-08T01:03:19.665Z,99.99
2022-10-08T01:04:19.664Z,99.99
2022-10-08T01:05:19.664Z,99.99
2022-10-08T01:06:19.668Z,99.99
2022-10-08T01:07:19.661Z,99.99
2022-10-08T01:08:19.657Z,99.99
2022-10-08T01:09:19.847Z,99.99
2022-10-08T01:10:19.653Z,99.99
2022-10-08T01:11:19.662Z,99.99
2022-10-08T01:12:19.650Z,99.99
2022-10-08T01:13:19.782Z,99.99
2022-10-08T01:14:19.654Z,99.99
2022-10-08T01:15:19.648Z,99.99
2022-10-08T01:16:19.669Z,99.99
2022-10-08T01:17:19.650Z,99.99
2022-10-08T01:18:19.649Z,99.99
2022-10-08T01:19:19.643Z,99.99
2022-10-08T01:20:19.645Z,99.99
2022-10-08T01:21:19.647Z,99.99
2022-10-08T01:22:19.638Z,99.99
2022-10-08T01:23:19.636Z,99.99
2022-10-08T01:24:19.640Z,99.99
2022-10-08T01:25:19.637Z,99.99
2022-10-08T01:26:19.647Z,99.99
2022-10-08T01:27:19.632Z,99.99
2022-10-08T01:28:19.767Z,99.99
2022-10-08T01:29:19.655Z,99.99
2022-10-08T01:30:19.631Z,99.99
2022-10-08T01:31:19.684Z,99.99
2022-10-08T01:32:19.631Z,99.99
2022-10-08T01:33:19.628Z,99.99
2022-10-08T01:34:19.628Z,99.99
2022-10-08T01:35:19.630Z,99.99
2022-10-08T01:36:19.620Z,99.99
2022-10-08T01:37:19.626Z,99.99
2022-10-08T01:38:19.620Z,99.99
2022-10-08T01:39:19.622Z,99.99
2022-10-08T01:40:19.619Z,99.99
2022-10-08T01:41:19.621Z,99.99
2022-10-08T01:42:19.617Z,99.99
2022-10-08T01:43:19.619Z,99.99
2022-10-08T01:44:19.613Z,99.99
2022-10-08T01:45:19.652Z,99.99
2022-10-08T01:46:19.704Z,99.99
2022-10-08T01:47:19.611Z,99.99
2022-10-08T01:48:19.608Z,99.99
2022-10-08T01:49:19.607Z,99.99
2022-10-08T01:50:19.605Z,99.99
2022-10-08T01:51:19.608Z,99.99
2022-10-08T01:52:19.606Z,99.99
2022-10-08T01:53:19.606Z,99.99
2022-10-08T01:54:19.602Z,99.99
2022-10-08T01:55:19.601Z,99.99
2022-10-08T01:56:19.602Z,99.99
2022-10-08T01:57:19.600Z,99.99
2022-10-08T01:58:19.597Z,99.99
2022-10-08T01:59:19.594Z,99.99
2022-10-08T02:00:19.599Z,99.99
2022-10-08T02:01:19.689Z,99.99
2022-10-08T02:02:19.653Z,99.99
2022-10-08T02:03:19.598Z,99.99
2022-10-08T02:04:19.602Z,99.99
2022-10-08T02:05:19.591Z,99.99
2022-10-08T02:06:19.597Z,99.99
2022-10-08T02:07:19.609Z,99.99
2022-10-08T02:08:19.602Z,99.99
2022-10-08T02:09:19.590Z,99.99
2022-10-08T02:10:19.587Z,99.99
2022-10-08T02:11:19.586Z,99.99
2022-10-08T02:12:19.584Z,99.99
2022-10-08T02:13:19.582Z,99.99
2022-10-08T02:14:19.588Z,99.99
2022-10-08T02:15:19.581Z,99.99
2022-10-08T02:16:19.622Z,99.99
2022-10-08T02:17:19.607Z,99.99
2022-10-08T02:18:19.574Z,99.99
2022-10-08T02:19:19.574Z,99.99
2022-10-08T02:20:19.568Z,99.99
2022-10-08T02:21:19.571Z,99.99
2022-10-08T02:22:19.571Z,99.99
2022-10-08T02:23:19.567Z,99.99
2022-10-08T02:24:19.573Z,99.99
2022-10-08T02:25:19.569Z,99.99
2022-10-08T02:26:19.567Z,99.99
2022-10-08T02:27:19.565Z,99.99
2022-10-08T02:28:19.618Z,99.99
2022-10-08T02:29:19.566Z,99.99
2022-10-08T02:30:19.562Z,99.99
2022-10-08T02:31:19.630Z,99.99
2022-10-08T02:32:19.561Z,99.99
2022-10-08T02:33:19.578Z,99.99
2022-10-08T02:34:19.555Z,99.99
2022-10-08T02:35:19.554Z,99.99
2022-10-08T02:36:19.555Z,99.99
2022-10-08T02:37:19.551Z,99.99
2022-10-08T02:38:19.563Z,99.99
2022-10-08T02:39:19.551Z,99.99
2022-10-08T02:40:19.557Z,99.99
2022-10-08T02:41:19.552Z,99.99
2022-10-08T02:42:19.556Z,99.99
2022-10-08T02:43:19.551Z,99.99
2022-10-08T02:44:19.548Z,99.99
2022-10-08T02:45:19.546Z,99.99
2022-10-08T02:46:19.602Z,99.99
2022-10-08T02:47:19.545Z,99.99
2022-10-08T02:48:19.539Z,99.99
2022-10-08T02:49:19.559Z,99.99
2022-10-08T02:50:19.541Z,99.99
2022-10-08T02:51:19.541Z,99.99
2022-10-08T02:52:19.535Z,99.99
2022-10-08T02:53:19.536Z,99.99
2022-10-08T02:54:19.533Z,99.99
2022-10-08T02:55:19.529Z,99.99
2022-10-08T02:56:19.532Z,99.99
2022-10-08T02:57:19.530Z,99.99
2022-10-08T02:58:19.533Z,99.99
2022-10-08T02:59:19.525Z,99.99
2022-10-08T03:00:19.529Z,99.99
2022-10-08T03:01:19.674Z,99.99
2022-10-08T03:02:19.568Z,99.99
2022-10-08T03:03:19.524Z,99.99
2022-10-08T03:04:19.525Z,99.99
2022-10-08T03:05:19.548Z,99.99
2022-10-08T03:06:19.521Z,99.99
2022-10-08T03:07:19.520Z,99.99
2022-10-08T03:08:19.519Z,99.99
2022-10-08T03:09:19.515Z,99.99
2022-10-08T03:10:19.514Z,99.99
2022-10-08T03:11:19.513Z,99.99
2022-10-08T03:12:19.515Z,99.99
2022-10-08T03:13:19.514Z,99.99
2022-10-08T03:14:19.512Z,99.99
2022-10-08T03:15:19.509Z,99.99
2022-10-08T03:16:19.548Z,99.99
2022-10-08T03:17:19.506Z,99.99
2022-10-08T03:18:19.510Z,99.99
2022-10-08T03:19:19.511Z,99.99
2022-10-08T03:20:19.505Z,99.99
2022-10-08T03:21:19.523Z,99.99
2022-10-08T03:22:19.495Z,99.99
2022-10-08T03:23:19.498Z,99.99
2022-10-08T03:24:19.505Z,99.99
2022-10-08T03:25:19.494Z,99.99
2022-10-08T03:26:19.496Z,99.99
2022-10-08T03:27:19.492Z,99.99
2022-10-08T03:28:19.579Z,99.99
2022-10-08T03:29:19.491Z,99.99
2022-10-08T03:30:19.498Z,99.99
2022-10-08T03:31:19.600Z,99.99
2022-10-08T03:32:19.490Z,99.99
2022-10-08T03:33:19.491Z,99.99
2022-10-08T03:34:19.486Z,99.99
2022-10-08T03:35:19.487Z,99.99
2022-10-08T03:36:19.490Z,99.99
2022-10-08T03:37:19.507Z,99.99
2022-10-08T03:38:19.485Z,99.99
2022-10-08T03:39:19.480Z,99.99
2022-10-08T03:40:19.482Z,99.99
2022-10-08T03:41:19.476Z,99.99
2022-10-08T03:42:19.477Z,99.99
2022-10-08T03:43:19.476Z,99.99
2022-10-08T03:44:19.478Z,99.99
2022-10-08T03:45:19.472Z,99.99
2022-10-08T03:46:19.520Z,99.99
2022-10-08T03:47:19.474Z,99.99
2022-10-08T03:48:19.467Z,99.99
2022-10-08T03:49:19.474Z,99.99
2022-10-08T03:50:19.467Z,99.99
2022-10-08T03:51:19.462Z,99.99
2022-10-08T03:52:19.466Z,99.99
2022-10-08T03:53:19.486Z,99.99
2022-10-08T03:54:19.470Z,99.99
2022-10-08T03:55:19.461Z,99.99
2022-10-08T03:56:19.475Z,99.99
2022-10-08T03:57:19.458Z,99.99
2022-10-08T03:58:19.463Z,99.99
2022-10-08T03:59:19.455Z,99.99
2022-10-08T04:00:19.454Z,99.99
2022-10-08T04:01:19.516Z,99.99
2022-10-08T04:02:19.507Z,99.99
2022-10-08T04:03:19.445Z,99.99
2022-10-08T04:04:24.548Z,99.99
2022-10-08T04:05:19.447Z,99.99
2022-10-08T04:06:19.448Z,99.99
2022-10-08T04:07:19.447Z,99.99
2022-10-08T04:08:19.446Z,99.99
2022-10-08T04:09:19.466Z,99.99
2022-10-08T04:10:19.446Z,99.99
2022-10-08T04:11:19.442Z,99.99
2022-10-08T04:12:19.436Z,99.99
2022-10-08T04:13:19.435Z,99.99
2022-10-08T04:14:19.439Z,99.99
2022-10-08T04:15:19.436Z,99.99
2022-10-08T04:16:19.534Z,99.99
2022-10-08T04:17:19.430Z,99.99
2022-10-08T04:18:19.432Z,99.99
2022-10-08T04:19:19.428Z,99.99
2022-10-08T04:20:19.430Z,99.99
2022-10-08T04:21:19.425Z,99.99
2022-10-08T04:22:19.427Z,99.99
2022-10-08T04:23:19.422Z,99.99
2022-10-08T04:24:19.425Z,99.99
2022-10-08T04:25:19.444Z,99.99
2022-10-08T04:26:19.425Z,99.99
2022-10-08T04:27:19.418Z,99.99
2022-10-08T04:28:19.516Z,99.99
2022-10-08T04:29:19.420Z,99.99
2022-10-08T04:30:19.414Z,99.99
2022-10-08T04:31:19.493Z,99.99
2022-10-08T04:32:19.413Z,99.99
2022-10-08T04:33:19.412Z,99.99
2022-10-08T04:34:19.415Z,99.99
2022-10-08T04:35:19.413Z,99.99
2022-10-08T04:36:19.408Z,99.99
2022-10-08T04:37:19.411Z,99.99
2022-10-08T04:38:19.409Z,99.99
2022-10-08T04:39:19.413Z,99.99
2022-10-08T04:40:19.414Z,99.99
2022-10-08T04:41:19.428Z,99.99
2022-10-08T04:42:19.402Z,99.99
2022-10-08T04:43:19.403Z,99.99
2022-10-08T04:44:19.398Z,99.99
2022-10-08T04:45:19.396Z,99.99
2022-10-08T04:46:19.495Z,99.99
2022-10-08T04:47:19.394Z,99.99
2022-10-08T04:48:19.394Z,99.99
2022-10-08T04:49:19.388Z,99.99
2022-10-08T04:50:19.391Z,99.99
2022-10-08T04:51:19.389Z,99.99
2022-10-08T04:52:19.392Z,99.99
2022-10-08T04:53:19.386Z,99.99
2022-10-08T04:54:19.384Z,99.99
2022-10-08T04:55:19.388Z,99.99
2022-10-08T04:56:19.384Z,99.99
2022-10-08T04:57:19.404Z,99.99
2022-10-08T04:58:19.380Z,99.99
2022-10-08T04:59:19.376Z,99.99
2022-10-08T05:00:19.612Z,99.99
2022-10-08T05:01:19.476Z,99.99
2022-10-08T05:02:19.401Z,99.99
2022-10-08T05:03:19.375Z,99.99
2022-10-08T05:04:19.371Z,99.99
2022-10-08T05:05:19.371Z,99.99
2022-10-08T05:06:19.368Z,99.99
2022-10-08T05:07:19.364Z,99.99
2022-10-08T05:08:19.368Z,99.99
2022-10-08T05:09:19.363Z,99.99
2022-10-08T05:10:19.368Z,99.99
2022-10-08T05:11:19.364Z,99.99
2022-10-08T05:12:19.363Z,99.99
2022-10-08T05:13:19.374Z,99.99
2022-10-08T05:14:19.358Z,99.99
2022-10-08T05:15:19.356Z,99.99
2022-10-08T05:16:19.472Z,99.99
2022-10-08T05:17:19.351Z,99.99
2022-10-08T05:18:19.353Z,99.99
2022-10-08T05:19:19.356Z,99.99
2022-10-08T05:20:19.352Z,99.99
2022-10-08T05:21:19.346Z,99.99
2022-10-08T05:22:19.347Z,99.99
2022-10-08T05:23:19.349Z,99.99
2022-10-08T05:24:19.351Z,99.99
2022-10-08T05:25:19.347Z,99.99
2022-10-08T05:26:19.345Z,99.99
2022-10-08T05:27:19.344Z,99.99
2022-10-08T05:28:19.373Z,99.99
2022-10-08T05:29:19.366Z,99.99
2022-10-08T05:30:21.940Z,99.99
2022-10-08T05:31:19.368Z,99.99
2022-10-08T05:32:19.336Z,99.99
2022-10-08T05:33:19.330Z,99.99
2022-10-08T05:34:19.333Z,99.99
2022-10-08T05:35:19.330Z,99.99
2022-10-08T05:36:19.329Z,99.99
2022-10-08T05:37:19.331Z,99.99
2022-10-08T05:38:19.324Z,99.99
2022-10-08T05:39:19.321Z,99.99
2022-10-08T05:40:19.321Z,99.99
2022-10-08T05:41:19.320Z,99.99
2022-10-08T05:42:19.320Z,99.99
2022-10-08T05:43:19.320Z,99.99
2022-10-08T05:44:19.317Z,99.99
2022-10-08T05:45:19.410Z,99.99
2022-10-08T05:46:19.343Z,99.99
2022-10-08T05:47:19.313Z,99.99
2022-10-08T05:48:19.315Z,99.99
2022-10-08T05:49:19.309Z,99.99
2022-10-08T05:50:19.307Z,99.99
2022-10-08T05:51:19.309Z,99.99
2022-10-08T05:52:19.310Z,99.99
2022-10-08T05:53:19.303Z,99.99
2022-10-08T05:54:19.304Z,99.99
2022-10-08T05:55:19.296Z,99.99
2022-10-08T05:56:19.300Z,99.99
2022-10-08T05:57:19.295Z,99.99
2022-10-08T05:58:19.295Z,99.99
2022-10-08T05:59:19.294Z,99.99
2022-10-08T06:00:19.295Z,99.99
2022-10-08T06:01:19.312Z,99.99
2022-10-08T06:02:19.293Z,99.99
2022-10-08T06:03:19.290Z,99.99
2022-10-08T06:04:19.385Z,99.99
2022-10-08T06:05:19.284Z,99.99
2022-10-08T06:06:19.283Z,99.99
2022-10-08T06:07:19.282Z,99.99
2022-10-08T06:08:19.290Z,99.99
2022-10-08T06:09:19.278Z,99.99
2022-10-08T06:10:19.285Z,99.99
2022-10-08T06:11:19.276Z,99.99
2022-10-08T06:12:19.276Z,99.99
2022-10-08T06:13:19.274Z,99.99
2022-10-08T06:14:19.291Z,99.99
2022-10-08T06:15:19.277Z,99.99
2022-10-08T06:16:19.320Z,99.99
2022-10-08T06:17:19.296Z,99.99
2022-10-08T06:18:19.265Z,99.99
2022-10-08T06:19:19.265Z,99.99
2022-10-08T06:20:19.268Z,99.99
2022-10-08T06:21:19.260Z,99.99
2022-10-08T06:22:19.262Z,99.99
2022-10-08T06:23:19.261Z,99.99
2022-10-08T06:24:19.258Z,99.99
2022-10-08T06:25:19.258Z,99.99
2022-10-08T06:26:19.257Z,99.99
2022-10-08T06:27:19.252Z,99.99
2022-10-08T06:28:19.286Z,99.99
2022-10-08T06:29:19.248Z,99.99
2022-10-08T06:30:19.286Z,99.99
2022-10-08T06:31:19.319Z,99.99
2022-10-08T06:32:19.249Z,99.99
2022-10-08T06:33:19.268Z,99.99
2022-10-08T06:34:19.248Z,99.99
2022-10-08T06:35:19.243Z,99.99
2022-10-08T06:36:19.245Z,99.99
2022-10-08T06:37:19.239Z,99.99
2022-10-08T06:38:19.239Z,99.99
2022-10-08T06:39:19.234Z,99.99
2022-10-08T06:40:19.240Z,99.99
2022-10-08T06:41:19.230Z,99.99
2022-10-08T06:42:19.237Z,99.99
2022-10-08T06:43:19.234Z,99.99
2022-10-08T06:44:19.281Z,99.99
2022-10-08T06:45:19.227Z,99.99
2022-10-08T06:46:19.332Z,99.99
2022-10-08T06:47:19.223Z,99.99
2022-10-08T06:48:19.227Z,99.99
2022-10-08T06:49:19.246Z,99.99
2022-10-08T06:50:19.223Z,99.99
2022-10-08T06:51:19.224Z,99.99
2022-10-08T06:52:19.218Z,99.99
2022-10-08T06:53:19.222Z,99.99
2022-10-08T06:54:19.216Z,99.99
2022-10-08T06:55:19.218Z,99.99
2022-10-08T06:56:19.213Z,99.99
2022-10-08T06:57:19.210Z,99.99
2022-10-08T06:58:19.215Z,99.99
2022-10-08T06:59:19.209Z,99.99
2022-10-08T07:00:19.207Z,99.99
2022-10-08T07:01:19.312Z,99.99
2022-10-08T07:02:19.285Z,99.99
2022-10-08T07:03:19.202Z,99.99
2022-10-08T07:04:19.202Z,99.99
2022-10-08T07:05:19.225Z,99.99
2022-10-08T07:06:19.197Z,99.99
2022-10-08T07:07:19.198Z,99.99
2022-10-08T07:08:19.199Z,99.99
2022-10-08T07:09:19.198Z,99.99
2022-10-08T07:10:19.195Z,99.99
2022-10-08T07:11:19.193Z,99.99
2022-10-08T07:12:19.195Z,99.99
2022-10-08T07:13:19.190Z,99.99
2022-10-08T07:14:19.188Z,99.99
2022-10-08T07:15:19.187Z,99.99
2022-10-08T07:16:21.099Z,99.99
2022-10-08T07:17:19.184Z,99.99
2022-10-08T07:18:19.186Z,99.99
2022-10-08T07:19:19.186Z,99.99
2022-10-08T07:20:19.179Z,99.99
2022-10-08T07:21:19.202Z,99.99
2022-10-08T07:22:19.182Z,99.99
2022-10-08T07:23:19.178Z,99.99
2022-10-08T07:24:19.179Z,99.99
2022-10-08T07:25:19.177Z,99.99
2022-10-08T07:26:19.181Z,99.99
2022-10-08T07:27:19.176Z,99.99
2022-10-08T07:28:19.288Z,99.99
2022-10-08T07:29:19.174Z,99.99
2022-10-08T07:30:19.166Z,99.99
2022-10-08T07:31:19.224Z,99.99
2022-10-08T07:32:19.172Z,99.99
2022-10-08T07:33:19.168Z,99.99
2022-10-08T07:34:19.167Z,99.99
2022-10-08T07:35:19.169Z,99.99
2022-10-08T07:36:19.163Z,99.99
2022-10-08T07:37:19.184Z,99.99
2022-10-08T07:38:19.163Z,99.99
2022-10-08T07:39:19.166Z,99.99
2022-10-08T07:40:19.167Z,99.99
2022-10-08T07:41:19.161Z,99.99
2022-10-08T07:42:19.157Z,99.99
2022-10-08T07:43:19.910Z,99.99
2022-10-08T07:44:19.160Z,99.99
2022-10-08T07:45:19.158Z,99.99
2022-10-08T07:46:19.157Z,99.99
2022-10-08T07:47:19.160Z,99.99
2022-10-08T07:48:19.156Z,99.99
2022-10-08T07:49:19.157Z,99.99
2022-10-08T07:50:19.149Z,99.99
2022-10-08T07:51:19.151Z,99.39
2022-10-08T07:52:19.151Z,99.39
2022-10-08T07:53:19.170Z,98.99
2022-10-08T07:54:19.160Z,99.44
2022-10-08T07:55:19.153Z,98.19
2022-10-08T07:56:19.149Z,98.49
2022-10-08T07:57:19.145Z,97.99
2022-10-08T07:58:19.148Z,98.19
2022-10-08T07:59:19.149Z,97.69
2022-10-08T08:00:23.852Z,98.39
2022-10-08T08:01:19.214Z,98.03
2022-10-08T08:02:19.314Z,98.79
2022-10-08T08:03:19.148Z,99.49
2022-10-08T08:04:19.152Z,98.84
2022-10-08T08:05:19.149Z,98.84
2022-10-08T08:06:19.143Z,98.09
2022-10-08T08:07:19.143Z,98.29
2022-10-08T08:08:19.144Z,98.09
2022-10-08T08:09:19.166Z,98.29
2022-10-08T08:10:19.141Z,98.14
2022-10-08T08:11:19.141Z,97.09
2022-10-08T08:12:19.147Z,95.33
2022-10-08T08:13:19.138Z,95.64
2022-10-08T08:14:19.144Z,94.59
2022-10-08T08:15:19.139Z,93.55
2022-10-08T08:16:19.222Z,92.00
2022-10-08T08:17:19.140Z,91.31
2022-10-08T08:18:19.142Z,90.46
2022-10-08T08:19:19.142Z,89.72
2022-10-08T08:20:19.138Z,89.12
2022-10-08T08:21:19.138Z,88.82
2022-10-08T08:22:19.140Z,88.28
2022-10-08T08:23:19.140Z,88.78
2022-10-08T08:24:19.140Z,88.32
2022-10-08T08:25:19.158Z,87.77
2022-10-08T08:26:19.138Z,87.77
2022-10-08T08:27:19.139Z,87.03
2022-10-08T08:28:19.242Z,86.85
2022-10-08T08:29:19.141Z,86.11
2022-10-08T08:30:19.136Z,85.67
2022-10-08T08:31:19.149Z,84.37
2022-10-08T08:32:19.139Z,84.57
2022-10-08T08:33:19.136Z,84.37
2022-10-08T08:34:19.153Z,83.53
2022-10-08T08:35:19.145Z,83.29
2022-10-08T08:36:19.142Z,83.35
2022-10-08T08:37:19.145Z,83.01
2022-10-08T08:38:19.140Z,82.12
2022-10-08T08:39:19.144Z,81.52
2022-10-08T08:40:19.143Z,81.88
2022-10-08T08:41:20.662Z,80.58
2022-10-08T08:42:19.144Z,80.54
2022-10-08T08:43:19.150Z,80.90
2022-10-08T08:44:19.150Z,80.00
2022-10-08T08:45:44.849Z,80.00
2022-10-08T08:46:19.257Z,79.81
2022-10-08T08:47:19.152Z,80.74
2022-10-08T08:48:19.159Z,80.74
2022-10-08T08:49:19.327Z,81.18
2022-10-08T08:50:19.154Z,80.65
2022-10-08T08:51:19.159Z,80.44
2022-10-08T08:52:19.161Z,81.08
2022-10-08T08:53:19.162Z,80.38
2022-10-08T08:54:19.169Z,79.88
2022-10-08T08:55:19.165Z,80.68
2022-10-08T08:56:19.168Z,79.85
2022-10-08T08:57:19.195Z,79.45
2022-10-08T08:58:19.169Z,79.35
2022-10-08T08:59:19.179Z,79.09
2022-10-08T09:00:19.178Z,79.15
2022-10-08T09:01:19.214Z,79.81
2022-10-08T09:02:19.181Z,78.85
2022-10-08T09:03:19.184Z,79.15
2022-10-08T09:04:19.196Z,78.91
2022-10-08T09:05:19.255Z,78.35
2022-10-08T09:06:19.197Z,78.52
2022-10-08T09:07:19.202Z,78.44
2022-10-08T09:08:19.206Z,77.51
2022-10-08T09:09:19.216Z,77.77
2022-10-08T09:10:19.214Z,77.23
2022-10-08T09:11:19.221Z,75.74
2022-10-08T09:12:21.014Z,76.50
2022-10-08T09:13:19.252Z,76.21
2022-10-08T09:14:19.234Z,75.71
2022-10-08T09:15:19.240Z,74.38
2022-10-08T09:16:19.308Z,74.02
2022-10-08T09:17:19.271Z,74.27
2022-10-08T09:18:19.263Z,74.10
2022-10-08T09:19:19.272Z,72.29
2022-10-08T09:20:19.278Z,72.16
2022-10-08T09:21:19.284Z,71.43
2022-10-08T09:22:19.291Z,70.04
2022-10-08T09:23:19.298Z,69.56
2022-10-08T09:24:19.312Z,70.18
2022-10-08T09:25:19.317Z,68.79
2022-10-08T09:26:19.325Z,68.86
2022-10-08T09:27:19.343Z,68.27
2022-10-08T09:28:19.375Z,68.79
2022-10-08T09:29:19.375Z,68.33
2022-10-08T09:30:19.360Z,66.93
2022-10-08T09:31:19.435Z,65.97
2022-10-08T09:32:19.379Z,68.46
2022-10-08T09:33:19.387Z,68.30
2022-10-08T09:34:19.402Z,68.76
2022-10-08T09:35:19.406Z,69.62
2022-10-08T09:36:19.419Z,70.31
2022-10-08T09:37:19.429Z,70.34
2022-10-08T09:38:19.444Z,71.00
2022-10-08T09:39:19.448Z,70.28
2022-10-08T09:40:19.462Z,71.80
2022-10-08T09:41:19.485Z,72.99
2022-10-08T09:42:19.479Z,73.02
2022-10-08T09:43:19.492Z,72.36
2022-10-08T09:44:19.497Z,71.47
2022-10-08T09:45:22.244Z,70.18
2022-10-08T09:46:19.563Z,69.95
2022-10-08T09:47:19.615Z,69.49
2022-10-08T09:48:19.544Z,69.98
2022-10-08T09:49:19.548Z,69.32
2022-10-08T09:50:19.627Z,69.59
2022-10-08T09:51:19.569Z,68.40
2022-10-08T09:52:19.575Z,69.35
2022-10-08T09:53:19.590Z,70.45
2022-10-08T09:54:19.593Z,72.00
2022-10-08T09:55:19.611Z,72.63
2022-10-08T09:56:19.618Z,73.96
2022-10-08T09:57:19.625Z,76.75
2022-10-08T09:58:19.642Z,76.92
2022-10-08T09:59:19.646Z,77.62
2022-10-08T10:00:19.782Z,78.16
2022-10-08T10:01:19.766Z,78.49
2022-10-08T10:02:19.674Z,79.35
2022-10-08T10:03:19.690Z,78.95
2022-10-08T10:04:19.793Z,78.79
2022-10-08T10:05:20.029Z,79.15
2022-10-08T10:06:21.268Z,78.89
2022-10-08T10:07:19.718Z,78.78
2022-10-08T10:08:19.724Z,77.78
2022-10-08T10:09:19.730Z,77.52
2022-10-08T10:10:19.836Z,78.52
2022-10-08T10:11:19.751Z,79.45
2022-10-08T10:12:19.757Z,80.29
2022-10-08T10:13:19.760Z,80.08
2022-10-08T10:14:19.762Z,79.99
2022-10-08T10:15:19.769Z,81.32
2022-10-08T10:16:20.067Z,81.32
2022-10-08T10:17:19.803Z,81.16
2022-10-08T10:18:19.838Z,81.40
2022-10-08T10:19:19.815Z,81.79
2022-10-08T10:20:19.827Z,82.39
2022-10-08T10:22:19.815Z,82.57
2022-10-08T10:23:19.821Z,82.97
2022-10-08T10:24:19.827Z,83.17
2022-10-08T10:25:19.832Z,82.57
2022-10-08T10:26:19.840Z,83.17
2022-10-08T10:27:19.851Z,81.87
2022-10-08T10:28:19.893Z,82.91
2022-10-08T10:29:19.856Z,82.57
2022-10-08T10:30:19.860Z,82.73
2022-10-08T10:31:19.945Z,83.03
2022-10-08T10:32:21.269Z,82.69
2022-10-08T10:33:19.897Z,82.73
2022-10-08T10:34:19.875Z,82.34
2022-10-08T10:35:19.882Z,82.64
2022-10-08T10:36:19.883Z,82.79
2022-10-08T10:37:19.960Z,82.50
2022-10-08T10:38:19.890Z,82.09
2022-10-08T10:39:19.894Z,81.63
2022-10-08T10:40:19.903Z,81.77
2022-10-08T10:41:20.007Z,83.01
2022-10-08T10:42:19.908Z,83.11
2022-10-08T10:43:19.910Z,83.45
2022-10-08T10:44:19.920Z,84.29
2022-10-08T10:45:19.916Z,84.93
2022-10-08T10:46:19.980Z,85.13
2022-10-08T10:47:19.922Z,85.68
2022-10-08T10:48:19.930Z,85.93
2022-10-08T10:49:19.953Z,85.47
2022-10-08T10:50:19.928Z,85.57
2022-10-08T10:51:19.930Z,86.71
2022-10-08T10:52:19.936Z,86.91
2022-10-08T10:53:19.939Z,87.26
2022-10-08T10:54:19.944Z,87.82
2022-10-08T10:55:19.951Z,88.06
2022-10-08T10:56:19.946Z,87.76
2022-10-08T10:57:19.952Z,86.82
2022-10-08T10:58:19.955Z,87.62
2022-10-08T10:59:19.956Z,87.62
2022-10-08T11:00:19.960Z,87.41
2022-10-08T11:01:19.975Z,87.41
2022-10-08T11:02:20.012Z,87.26
2022-10-08T11:03:19.964Z,87.80
2022-10-08T11:04:19.971Z,88.24
2022-10-08T11:05:19.989Z,88.44
2022-10-08T11:06:19.973Z,88.95
2022-10-08T11:07:19.976Z,89.25
2022-10-08T11:08:19.977Z,89.04
2022-10-08T11:09:19.978Z,89.00
2022-10-08T11:10:19.979Z,89.25
2022-10-08T11:11:19.980Z,89.34
2022-10-08T11:12:19.989Z,89.54
2022-10-08T11:13:19.983Z,89.20
2022-10-08T11:14:19.988Z,89.04
2022-10-08T11:15:19.990Z,89.14
2022-10-08T11:16:20.054Z,89.14
2022-10-08T11:17:22.199Z,88.84
2022-10-08T11:18:19.994Z,88.95
2022-10-08T11:19:19.998Z,89.25
2022-10-08T11:20:20.000Z,88.84
2022-10-08T11:21:20.020Z,88.84
2022-10-08T11:22:20.002Z,89.04
2022-10-08T11:23:20.004Z,89.65
2022-10-08T11:24:20.002Z,90.09
2022-10-08T11:25:20.010Z,90.13
2022-10-08T11:26:22.708Z,90.49
2022-10-08T11:27:20.013Z,90.59
2022-10-08T11:28:20.137Z,90.39
2022-10-08T11:29:20.013Z,90.79
2022-10-08T11:30:20.020Z,89.79
2022-10-08T11:31:20.085Z,89.79
2022-10-08T11:32:20.014Z,90.09
2022-10-08T11:33:20.020Z,89.75
2022-10-08T11:34:20.018Z,89.25
2022-10-08T11:35:20.020Z,89.54
2022-10-08T11:36:20.025Z,90.15
2022-10-08T11:37:20.042Z,90.49
2022-10-08T11:38:20.019Z,90.29
2022-10-08T11:39:20.024Z,90.13
2022-10-08T11:40:20.024Z,90.84
2022-10-08T11:41:20.036Z,90.89
2022-10-08T11:42:20.029Z,90.79
2022-10-08T11:43:20.028Z,90.64
2022-10-08T11:44:20.028Z,91.14
2022-10-08T11:45:20.032Z,90.84
2022-10-08T11:46:20.083Z,90.64
2022-10-08T11:47:20.038Z,90.84
2022-10-08T11:48:20.039Z,90.84
2022-10-08T11:49:20.035Z,91.24
2022-10-08T11:50:20.033Z,90.78
2022-10-08T11:51:20.054Z,91.32
2022-10-08T11:52:20.044Z,92.33
2022-10-08T11:53:20.067Z,92.43
2022-10-08T11:54:20.038Z,93.63
2022-10-08T11:55:20.040Z,94.13
2022-10-08T11:56:20.037Z,94.48
2022-10-08T11:57:20.047Z,95.84
2022-10-08T11:58:20.038Z,97.40
2022-10-08T11:59:20.046Z,98.65
2022-10-08T12:00:20.046Z,99.15
2022-10-08T12:01:20.045Z,99.99
2022-10-08T12:02:20.217Z,99.99
2022-10-08T12:03:20.238Z,99.99
2022-10-08T12:04:20.045Z,99.99
2022-10-08T12:05:20.047Z,99.99
2022-10-08T12:06:20.051Z,99.99
2022-10-08T12:07:20.066Z,99.99
2022-10-08T12:08:20.051Z,99.99
2022-10-08T12:09:20.077Z,99.99
2022-10-08T12:10:20.060Z,99.99
2022-10-08T12:11:20.055Z,99.99
2022-10-08T12:12:20.052Z,99.99
2022-10-08T12:13:20.051Z,99.99
2022-10-08T12:14:20.060Z,99.99
2022-10-08T12:15:20.063Z,99.99
2022-10-08T12:16:20.178Z,99.99
2022-10-08T12:17:20.051Z,99.99
2022-10-08T12:18:23.744Z,99.99
2022-10-08T12:19:20.048Z,99.99
2022-10-08T12:20:20.059Z,99.99
2022-10-08T12:21:20.058Z,99.99
2022-10-08T12:22:20.056Z,99.99
2022-10-08T12:23:20.062Z,99.99
2022-10-08T12:24:20.062Z,99.99
2022-10-08T12:25:20.078Z,99.99
2022-10-08T12:26:20.060Z,99.99
2022-10-08T12:27:20.064Z,99.99
2022-10-08T12:28:20.160Z,99.99
2022-10-08T12:29:20.059Z,99.99
2022-10-08T12:30:20.063Z,99.99
2022-10-08T12:31:20.145Z,99.99
2022-10-08T12:32:20.066Z,99.99
2022-10-08T12:33:20.064Z,99.99
2022-10-08T12:34:20.063Z,99.99
2022-10-08T12:35:20.070Z,99.99
2022-10-08T12:36:20.076Z,99.99
2022-10-08T12:37:20.065Z,99.99
2022-10-08T12:38:20.065Z,99.99
2022-10-08T12:39:20.071Z,99.99
2022-10-08T12:40:20.067Z,99.99
2022-10-08T12:41:20.085Z,99.99
2022-10-08T12:42:20.068Z,99.99
2022-10-08T12:43:20.067Z,99.99
2022-10-08T12:44:20.064Z,99.99
2022-10-08T12:45:20.071Z,99.99
2022-10-08T12:46:20.153Z,99.99
2022-10-08T12:47:20.086Z,99.99
2022-10-08T12:48:20.082Z,99.99
2022-10-08T12:49:20.096Z,99.99
2022-10-08T12:50:20.085Z,99.41
2022-10-08T12:51:20.072Z,99.01
2022-10-08T12:52:20.068Z,99.41
2022-10-08T12:53:20.074Z,98.21